sensor_id;sensor_type;location;lat;lon;timestamp;pressure;altitude;pressure_sealevel;temperature;humidity
21182;BME280;10749;46.296;7.524;2023-04-30T00:02:02;94817.72;;;16.82;55.16
21182;BME280;10749;46.296;7.524;2023-04-30T00:04:27;94818.78;;;16.81;55.10
21182;BME280;10749;46.296;7.524;2023-04-30T00:06:52;94813.25;;;16.76;55.02
21182;BME280;10749;46.296;7.524;2023-04-30T00:09:17;94812.44;;;16.75;55.21
21182;BME280;10749;46.296;7.524;2023-04-30T00:11:43;94812.06;;;16.72;55.35
21182;BME280;10749;46.296;7.524;2023-04-30T00:14:08;94810.03;;;16.67;55.39
21182;BME280;10749;46.296;7.524;2023-04-30T00:16:34;94804.91;;;16.66;55.67
21182;BME280;10749;46.296;7.524;2023-04-30T00:18:59;94803.50;;;16.63;55.65
21182;BME280;10749;46.296;7.524;2023-04-30T00:21:25;94801.69;;;16.57;55.69
21182;BME280;10749;46.296;7.524;2023-04-30T00:23:50;94807.63;;;16.52;55.88
21182;BME280;10749;46.296;7.524;2023-04-30T00:26:15;94812.22;;;16.45;55.85
21182;BME280;10749;46.296;7.524;2023-04-30T00:28:40;94806.50;;;16.42;55.82
21182;BME280;10749;46.296;7.524;2023-04-30T00:31:06;94800.75;;;16.38;56.26
21182;BME280;10749;46.296;7.524;2023-04-30T00:33:33;94798.31;;;16.37;56.10
21182;BME280;10749;46.296;7.524;2023-04-30T00:35:59;94801.63;;;16.32;56.39
21182;BME280;10749;46.296;7.524;2023-04-30T00:38:24;94804.72;;;16.29;56.49
21182;BME280;10749;46.296;7.524;2023-04-30T00:40:50;94800.63;;;16.27;56.26
21182;BME280;10749;46.296;7.524;2023-04-30T00:43:16;94811.09;;;16.28;56.16
21182;BME280;10749;46.296;7.524;2023-04-30T00:45:41;94804.72;;;16.29;56.33
21182;BME280;10749;46.296;7.524;2023-04-30T00:48:07;94807.78;;;16.33;56.39
21182;BME280;10749;46.296;7.524;2023-04-30T00:50:34;94801.03;;;16.30;56.38
21182;BME280;10749;46.296;7.524;2023-04-30T00:53:00;94790.09;;;16.32;56.45
21182;BME280;10749;46.296;7.524;2023-04-30T00:55:25;94785.59;;;16.32;56.24
21182;BME280;10749;46.296;7.524;2023-04-30T00:57:51;94779.66;;;16.30;56.41
21182;BME280;10749;46.296;7.524;2023-04-30T01:00:16;94774.53;;;16.29;56.57
21182;BME280;10749;46.296;7.524;2023-04-30T01:02:42;94779.03;;;16.28;56.62
21182;BME280;10749;46.296;7.524;2023-04-30T01:05:08;94778.66;;;16.25;56.60
21182;BME280;10749;46.296;7.524;2023-04-30T01:07:35;94776.22;;;16.23;56.69
21182;BME280;10749;46.296;7.524;2023-04-30T01:10:03;94778.28;;;16.21;56.43
21182;BME280;10749;46.296;7.524;2023-04-30T01:15:27;94768.06;;;16.11;56.79
21182;BME280;10749;46.296;7.524;2023-04-30T01:18:02;94766.47;;;16.04;56.56
21182;BME280;10749;46.296;7.524;2023-04-30T01:20:30;94769.84;;;15.93;56.86
21182;BME280;10749;46.296;7.524;2023-04-30T01:23:17;94760.44;;;15.84;56.56
21182;BME280;10749;46.296;7.524;2023-04-30T01:28:17;94758.19;;;15.81;57.01
21182;BME280;10749;46.296;7.524;2023-04-30T01:30:44;94764.13;;;15.83;56.71
21182;BME280;10749;46.296;7.524;2023-04-30T01:33:10;94759.22;;;15.80;57.06
21182;BME280;10749;46.296;7.524;2023-04-30T01:41:09;94768.72;;;15.69;57.01
21182;BME280;10749;46.296;7.524;2023-04-30T01:46:30;94758.84;;;15.69;57.03
21182;BME280;10749;46.296;7.524;2023-04-30T01:49:19;94766.28;;;15.67;57.15
21182;BME280;10749;46.296;7.524;2023-04-30T01:51:54;94758.06;;;15.62;57.37
21182;BME280;10749;46.296;7.524;2023-04-30T01:54:30;94758.50;;;15.59;57.11
21182;BME280;10749;46.296;7.524;2023-04-30T01:57:15;94763.03;;;15.59;57.24
21182;BME280;10749;46.296;7.524;2023-04-30T01:59:41;94763.03;;;15.59;57.11
21182;BME280;10749;46.296;7.524;2023-04-30T02:02:07;94761.00;;;15.54;57.19
21182;BME280;10749;46.296;7.524;2023-04-30T02:04:32;94752.41;;;15.52;56.97
21182;BME280;10749;46.296;7.524;2023-04-30T02:06:58;94764.91;;;15.52;56.99
21182;BME280;10749;46.296;7.524;2023-04-30T02:09:23;94763.03;;;15.46;57.57
21182;BME280;10749;46.296;7.524;2023-04-30T02:11:49;94761.81;;;15.42;57.80
21182;BME280;10749;46.296;7.524;2023-04-30T02:14:15;94755.28;;;15.44;57.49
21182;BME280;10749;46.296;7.524;2023-04-30T02:16:40;94757.94;;;15.44;57.70
21182;BME280;10749;46.296;7.524;2023-04-30T02:19:05;94758.97;;;15.43;57.84
21182;BME280;10749;46.296;7.524;2023-04-30T02:21:30;94757.31;;;15.42;57.86
21182;BME280;10749;46.296;7.524;2023-04-30T02:23:56;94753.22;;;15.40;57.63
21182;BME280;10749;46.296;7.524;2023-04-30T02:26:21;94751.97;;;15.42;57.55
21182;BME280;10749;46.296;7.524;2023-04-30T02:28:46;94754.44;;;15.44;57.44
21182;BME280;10749;46.296;7.524;2023-04-30T02:31:12;94745.00;;;15.41;57.69
21182;BME280;10749;46.296;7.524;2023-04-30T02:33:39;94748.09;;;15.38;57.98
21182;BME280;10749;46.296;7.524;2023-04-30T02:36:04;94756.72;;;15.40;57.86
21182;BME280;10749;46.296;7.524;2023-04-30T02:38:30;94747.06;;;15.39;57.90
21182;BME280;10749;46.296;7.524;2023-04-30T02:40:55;94755.66;;;15.41;57.68
21182;BME280;10749;46.296;7.524;2023-04-30T02:43:20;94748.91;;;15.39;58.27
21182;BME280;10749;46.296;7.524;2023-04-30T02:45:46;94748.91;;;15.39;58.36
21182;BME280;10749;46.296;7.524;2023-04-30T02:48:11;94744.03;;;15.36;58.49
21182;BME280;10749;46.296;7.524;2023-04-30T02:50:36;94741.34;;;15.29;58.23
21182;BME280;10749;46.296;7.524;2023-04-30T02:53:02;94747.94;;;15.27;57.66
21182;BME280;10749;46.296;7.524;2023-04-30T02:55:27;94744.66;;;15.24;57.73
21182;BME280;10749;46.296;7.524;2023-04-30T02:57:52;94742.63;;;15.20;57.77
21182;BME280;10749;46.296;7.524;2023-04-30T03:00:18;94738.13;;;15.14;58.13
21182;BME280;10749;46.296;7.524;2023-04-30T03:02:43;94740.59;;;15.09;58.43
21182;BME280;10749;46.296;7.524;2023-04-30T03:05:08;94738.16;;;15.01;58.27
21182;BME280;10749;46.296;7.524;2023-04-30T03:07:34;94740.63;;;14.96;58.07
21182;BME280;10749;46.296;7.524;2023-04-30T03:10:00;94741.50;;;14.90;57.63
21182;BME280;10749;46.296;7.524;2023-04-30T03:12:25;94736.16;;;14.90;57.94
21182;BME280;10749;46.296;7.524;2023-04-30T03:14:50;94733.72;;;14.82;58.30
21182;BME280;10749;46.296;7.524;2023-04-30T03:17:16;94739.84;;;14.75;58.26
21182;BME280;10749;46.296;7.524;2023-04-30T03:19:41;94734.53;;;14.75;58.03
21182;BME280;10749;46.296;7.524;2023-04-30T03:22:07;94727.97;;;14.71;58.05
21182;BME280;10749;46.296;7.524;2023-04-30T03:24:32;94730.25;;;14.68;57.93
21182;BME280;10749;46.296;7.524;2023-04-30T03:26:57;94728.84;;;14.65;58.21
21182;BME280;10749;46.296;7.524;2023-04-30T03:29:23;94728.19;;;14.63;58.33
21182;BME280;10749;46.296;7.524;2023-04-30T03:31:48;94730.88;;;14.63;58.40
21182;BME280;10749;46.296;7.524;2023-04-30T03:34:13;94728.41;;;14.55;58.54
21182;BME280;10749;46.296;7.524;2023-04-30T03:36:39;94727.59;;;14.55;58.18
21182;BME280;10749;46.296;7.524;2023-04-30T03:39:04;94726.78;;;14.54;58.12
21182;BME280;10749;46.296;7.524;2023-04-30T03:41:29;94722.06;;;14.50;58.56
21182;BME280;10749;46.296;7.524;2023-04-30T03:43:55;94723.72;;;14.44;58.48
21182;BME280;10749;46.296;7.524;2023-04-30T03:46:20;94726.16;;;14.46;58.29
21182;BME280;10749;46.296;7.524;2023-04-30T03:48:46;94729.25;;;14.36;58.30
21182;BME280;10749;46.296;7.524;2023-04-30T03:51:11;94733.31;;;14.32;58.76
21182;BME280;10749;46.296;7.524;2023-04-30T03:53:36;94725.72;;;14.29;58.44
21182;BME280;10749;46.296;7.524;2023-04-30T03:56:02;94728.41;;;14.22;58.85
21182;BME280;10749;46.296;7.524;2023-04-30T03:58:29;94724.31;;;14.20;58.32
21182;BME280;10749;46.296;7.524;2023-04-30T04:00:54;94722.25;;;14.22;58.35
21182;BME280;10749;46.296;7.524;2023-04-30T04:03:20;94721.25;;;14.23;58.06
21182;BME280;10749;46.296;7.524;2023-04-30T04:05:46;94725.94;;;14.21;58.01
21182;BME280;10749;46.296;7.524;2023-04-30T04:08:11;94735.34;;;14.17;57.87
21182;BME280;10749;46.296;7.524;2023-04-30T04:10:37;94739.06;;;14.16;58.18
21182;BME280;10749;46.296;7.524;2023-04-30T04:13:03;94740.25;;;14.13;58.12
21182;BME280;10749;46.296;7.524;2023-04-30T04:15:29;94735.34;;;14.10;58.11
21182;BME280;10749;46.296;7.524;2023-04-30T04:17:54;94733.31;;;14.06;58.03
21182;BME280;10749;46.296;7.524;2023-04-30T04:20:20;94733.72;;;14.09;58.03
21182;BME280;10749;46.296;7.524;2023-04-30T04:22:45;94735.78;;;14.07;57.94
21182;BME280;10749;46.296;7.524;2023-04-30T04:25:10;94735.78;;;14.07;57.77
21182;BME280;10749;46.296;7.524;2023-04-30T04:27:35;94731.88;;;14.10;57.98
21182;BME280;10749;46.296;7.524;2023-04-30T04:30:02;94725.72;;;14.09;58.06
21182;BME280;10749;46.296;7.524;2023-04-30T04:32:27;94730.25;;;14.02;58.36
21182;BME280;10749;46.296;7.524;2023-04-30T04:34:53;94735.75;;;14.01;58.50
21182;BME280;10749;46.296;7.524;2023-04-30T04:37:19;94728.38;;;13.96;58.53
21182;BME280;10749;46.296;7.524;2023-04-30T04:39:44;94734.50;;;13.97;58.68
21182;BME280;10749;46.296;7.524;2023-04-30T04:42:10;94739.44;;;14.00;58.69
21182;BME280;10749;46.296;7.524;2023-04-30T04:44:36;94736.56;;;14.01;58.85
21182;BME280;10749;46.296;7.524;2023-04-30T04:47:02;94746.38;;;14.01;58.72
21182;BME280;10749;46.296;7.524;2023-04-30T04:49:28;94741.91;;;14.01;58.64
21182;BME280;10749;46.296;7.524;2023-04-30T04:51:53;94746.81;;;13.98;59.04
21182;BME280;10749;46.296;7.524;2023-04-30T04:54:19;94744.94;;;13.92;58.77
21182;BME280;10749;46.296;7.524;2023-04-30T04:56:45;94754.97;;;13.90;59.16
21182;BME280;10749;46.296;7.524;2023-04-30T04:59:10;94745.75;;;13.92;58.95
21182;BME280;10749;46.296;7.524;2023-04-30T05:01:35;94744.75;;;13.93;58.89
21182;BME280;10749;46.296;7.524;2023-04-30T05:04:01;94746.81;;;13.98;58.88
21182;BME280;10749;46.296;7.524;2023-04-30T05:06:26;94745.38;;;14.02;58.61
21182;BME280;10749;46.296;7.524;2023-04-30T05:08:52;94740.69;;;14.04;58.75
21182;BME280;10749;46.296;7.524;2023-04-30T05:11:18;94746.81;;;14.04;58.94
21182;BME280;10749;46.296;7.524;2023-04-30T05:13:43;94750.69;;;14.02;59.05
21182;BME280;10749;46.296;7.524;2023-04-30T05:16:08;94751.94;;;14.06;59.07
21182;BME280;10749;46.296;7.524;2023-04-30T05:18:33;94752.56;;;14.08;59.18
21182;BME280;10749;46.296;7.524;2023-04-30T05:20:59;94750.09;;;14.13;58.77
21182;BME280;10749;46.296;7.524;2023-04-30T05:23:24;94744.97;;;14.18;58.81
21182;BME280;10749;46.296;7.524;2023-04-30T05:25:53;94748.88;;;14.22;59.10
21182;BME280;10749;46.296;7.524;2023-04-30T05:28:19;94742.75;;;14.28;58.96
21182;BME280;10749;46.296;7.524;2023-04-30T05:30:44;94742.75;;;14.28;59.09
21182;BME280;10749;46.296;7.524;2023-04-30T05:33:09;94742.31;;;14.31;59.34
21182;BME280;10749;46.296;7.524;2023-04-30T05:35:35;94746.25;;;14.35;59.34
21182;BME280;10749;46.296;7.524;2023-04-30T05:38:01;94749.72;;;14.42;59.68
21182;BME280;10749;46.296;7.524;2023-04-30T05:40:27;94746.03;;;14.43;59.48
21182;BME280;10749;46.296;7.524;2023-04-30T05:42:53;94743.16;;;14.51;59.58
21182;BME280;10749;46.296;7.524;2023-04-30T05:45:18;94750.94;;;14.59;59.40
21182;BME280;10749;46.296;7.524;2023-04-30T05:47:43;94739.06;;;14.68;59.38
21182;BME280;10749;46.296;7.524;2023-04-30T05:50:09;94752.16;;;14.76;59.46
21182;BME280;10749;46.296;7.524;2023-04-30T05:52:34;94749.31;;;14.78;59.46
21182;BME280;10749;46.296;7.524;2023-04-30T05:54:59;94750.09;;;14.78;59.38
21182;BME280;10749;46.296;7.524;2023-04-30T05:57:25;94755.63;;;14.84;59.22
21182;BME280;10749;46.296;7.524;2023-04-30T05:59:50;94759.13;;;14.84;59.27
21182;BME280;10749;46.296;7.524;2023-04-30T06:02:15;94760.34;;;14.88;59.15
21182;BME280;10749;46.296;7.524;2023-04-30T06:04:41;94756.47;;;14.91;59.05
21182;BME280;10749;46.296;7.524;2023-04-30T06:07:06;94747.22;;;14.93;59.15
21182;BME280;10749;46.296;7.524;2023-04-30T06:09:32;94752.94;;;14.97;59.28
21182;BME280;10749;46.296;7.524;2023-04-30T06:11:57;94747.81;;;15.02;59.52
21182;BME280;10749;46.296;7.524;2023-04-30T06:14:23;94744.91;;;15.10;59.35
21182;BME280;10749;46.296;7.524;2023-04-30T06:16:48;94741.41;;;15.22;59.03
21182;BME280;10749;46.296;7.524;2023-04-30T06:19:14;94745.03;;;15.28;59.51
21182;BME280;10749;46.296;7.524;2023-04-30T06:21:39;94751.63;;;15.32;59.53
21182;BME280;10749;46.296;7.524;2023-04-30T06:24:07;94743.38;;;15.40;59.50
21182;BME280;10749;46.296;7.524;2023-04-30T06:26:32;94738.44;;;15.50;59.40
21182;BME280;10749;46.296;7.524;2023-04-30T06:28:58;94740.66;;;15.60;59.21
21182;BME280;10749;46.296;7.524;2023-04-30T06:31:23;94738.72;;;15.74;59.39
21182;BME280;10749;46.296;7.524;2023-04-30T06:33:48;94738.50;;;15.82;59.28
21182;BME280;10749;46.296;7.524;2023-04-30T06:36:14;94744.34;;;15.97;59.33
21182;BME280;10749;46.296;7.524;2023-04-30T06:38:40;94756.81;;;16.03;59.05
21182;BME280;10749;46.296;7.524;2023-04-30T06:41:07;94751.72;;;16.01;59.16
21182;BME280;10749;46.296;7.524;2023-04-30T06:43:32;94751.22;;;16.11;59.06
21182;BME280;10749;46.296;7.524;2023-04-30T06:45:57;94749.53;;;16.23;59.03
21182;BME280;10749;46.296;7.524;2023-04-30T06:48:22;94745.66;;;16.44;58.91
21182;BME280;10749;46.296;7.524;2023-04-30T06:50:48;94750.50;;;16.60;58.53
21182;BME280;10749;46.296;7.524;2023-04-30T06:53:14;94750.63;;;16.65;58.79
21182;BME280;10749;46.296;7.524;2023-04-30T06:55:40;94744.22;;;16.73;58.52
21182;BME280;10749;46.296;7.524;2023-04-30T06:58:06;94738.72;;;16.86;58.73
21182;BME280;10749;46.296;7.524;2023-04-30T07:00:32;94749.91;;;17.01;58.46
21182;BME280;10749;46.296;7.524;2023-04-30T07:02:58;94743.81;;;17.12;58.22
21182;BME280;10749;46.296;7.524;2023-04-30T07:05:27;94746.50;;;17.12;58.42
21182;BME280;10749;46.296;7.524;2023-04-30T07:07:52;94745.63;;;17.18;58.22
21182;BME280;10749;46.296;7.524;2023-04-30T07:10:17;94750.22;;;17.29;58.41
21182;BME280;10749;46.296;7.524;2023-04-30T07:12:43;94749.31;;;17.35;58.11
21182;BME280;10749;46.296;7.524;2023-04-30T07:15:08;94738.69;;;17.29;57.70
21182;BME280;10749;46.296;7.524;2023-04-30T07:17:34;94743.38;;;17.33;57.34
21182;BME280;10749;46.296;7.524;2023-04-30T07:19:59;94739.38;;;17.42;57.48
21182;BME280;10749;46.296;7.524;2023-04-30T07:22:24;94733.88;;;17.56;57.49
21182;BME280;10749;46.296;7.524;2023-04-30T07:24:50;94746.19;;;17.75;57.53
21182;BME280;10749;46.296;7.524;2023-04-30T07:27:15;94738.41;;;17.85;57.15
21182;BME280;10749;46.296;7.524;2023-04-30T07:29:40;94744.38;;;17.87;56.99
21182;BME280;10749;46.296;7.524;2023-04-30T07:32:06;94734.84;;;17.91;56.97
21182;BME280;10749;46.296;7.524;2023-04-30T07:34:31;94737.16;;;17.87;56.78
21182;BME280;10749;46.296;7.524;2023-04-30T07:36:56;94729.50;;;17.91;56.23
21182;BME280;10749;46.296;7.524;2023-04-30T07:39:21;94731.34;;;17.90;56.55
21182;BME280;10749;46.296;7.524;2023-04-30T07:41:47;94729.84;;;17.94;56.26
21182;BME280;10749;46.296;7.524;2023-04-30T07:44:12;94733.16;;;18.08;56.08
21182;BME280;10749;46.296;7.524;2023-04-30T07:46:37;94717.34;;;18.18;55.94
21182;BME280;10749;46.296;7.524;2023-04-30T07:49:02;94730.06;;;18.23;55.82
21182;BME280;10749;46.296;7.524;2023-04-30T07:51:28;94723.44;;;18.25;55.72
21182;BME280;10749;46.296;7.524;2023-04-30T07:53:54;94724.00;;;18.27;55.21
21182;BME280;10749;46.296;7.524;2023-04-30T07:56:20;94713.97;;;18.23;54.96
21182;BME280;10749;46.296;7.524;2023-04-30T07:58:46;94714.13;;;18.28;54.57
21182;BME280;10749;46.296;7.524;2023-04-30T08:01:11;94709.56;;;18.28;54.90
21182;BME280;10749;46.296;7.524;2023-04-30T08:03:36;94709.13;;;18.31;54.85
21182;BME280;10749;46.296;7.524;2023-04-30T08:06:02;94707.88;;;18.45;54.90
21182;BME280;10749;46.296;7.524;2023-04-30T08:08:27;94704.88;;;18.54;55.02
21182;BME280;10749;46.296;7.524;2023-04-30T08:10:52;94694.72;;;18.56;54.79
21182;BME280;10749;46.296;7.524;2023-04-30T08:13:18;94691.78;;;18.45;54.78
21182;BME280;10749;46.296;7.524;2023-04-30T08:15:44;94701.25;;;18.60;54.63
21182;BME280;10749;46.296;7.524;2023-04-30T08:18:10;94695.19;;;18.64;54.59
21182;BME280;10749;46.296;7.524;2023-04-30T08:20:35;94697.53;;;18.72;54.32
21182;BME280;10749;46.296;7.524;2023-04-30T08:23:00;94691.72;;;18.75;53.98
21182;BME280;10749;46.296;7.524;2023-04-30T08:25:26;94695.78;;;18.78;53.64
21182;BME280;10749;46.296;7.524;2023-04-30T08:27:51;94699.03;;;18.68;53.49
21182;BME280;10749;46.296;7.524;2023-04-30T08:30:16;94692.28;;;18.66;53.17
21182;BME280;10749;46.296;7.524;2023-04-30T08:32:42;94688.66;;;18.72;53.50
21182;BME280;10749;46.296;7.524;2023-04-30T08:35:08;94685.97;;;18.72;52.87
21182;BME280;10749;46.296;7.524;2023-04-30T08:37:33;94694.16;;;18.77;52.99
21182;BME280;10749;46.296;7.524;2023-04-30T08:39:59;94688.78;;;18.77;52.86
21182;BME280;10749;46.296;7.524;2023-04-30T08:42:29;94686.44;;;18.80;53.12
21182;BME280;10749;46.296;7.524;2023-04-30T08:44:55;94688.78;;;18.77;52.84
21182;BME280;10749;46.296;7.524;2023-04-30T08:47:23;94687.63;;;18.73;52.47
21182;BME280;10749;46.296;7.524;2023-04-30T08:49:48;94684.59;;;18.81;53.22
21182;BME280;10749;46.296;7.524;2023-04-30T08:52:14;94678.78;;;18.84;53.38
21182;BME280;10749;46.296;7.524;2023-04-30T08:54:39;94684.81;;;18.91;53.26
21182;BME280;10749;46.296;7.524;2023-04-30T08:57:06;94680.28;;;18.92;52.96
21182;BME280;10749;46.296;7.524;2023-04-30T08:59:31;94680.63;;;18.95;52.79
21182;BME280;10749;46.296;7.524;2023-04-30T09:01:59;94682.59;;;19.00;52.46
21182;BME280;10749;46.296;7.524;2023-04-30T09:04:24;94679.22;;;19.04;52.54
21182;BME280;10749;46.296;7.524;2023-04-30T09:06:52;94682.59;;;19.11;52.02
21182;BME280;10749;46.296;7.524;2023-04-30T09:09:27;94671.16;;;19.16;51.91
21182;BME280;10749;46.296;7.524;2023-04-30T09:11:52;94672.78;;;19.05;51.75
21182;BME280;10749;46.296;7.524;2023-04-30T09:14:34;94672.91;;;18.99;51.54
21182;BME280;10749;46.296;7.524;2023-04-30T09:17:04;94672.47;;;18.90;51.29
21182;BME280;10749;46.296;7.524;2023-04-30T09:19:30;94675.97;;;18.90;51.44
21182;BME280;10749;46.296;7.524;2023-04-30T09:21:56;94665.69;;;18.99;51.34
21182;BME280;10749;46.296;7.524;2023-04-30T09:24:22;94665.91;;;18.98;51.64
21182;BME280;10749;46.296;7.524;2023-04-30T09:26:48;94666.75;;;18.86;51.19
21182;BME280;10749;46.296;7.524;2023-04-30T09:29:14;94667.41;;;19.05;51.72
21182;BME280;10749;46.296;7.524;2023-04-30T09:31:44;94666.63;;;19.05;51.63
21182;BME280;10749;46.296;7.524;2023-04-30T09:34:11;94663.22;;;19.09;51.61
21182;BME280;10749;46.296;7.524;2023-04-30T09:36:36;94659.16;;;19.07;51.58
21182;BME280;10749;46.296;7.524;2023-04-30T09:39:08;94665.22;;;19.02;51.37
21182;BME280;10749;46.296;7.524;2023-04-30T09:41:42;94657.28;;;19.07;51.60
21182;BME280;10749;46.296;7.524;2023-04-30T09:44:25;94662.91;;;18.94;51.17
21182;BME280;10749;46.296;7.524;2023-04-30T09:46:51;94666.63;;;19.05;51.30
21182;BME280;10749;46.296;7.524;2023-04-30T09:49:18;94661.50;;;19.03;51.55
21182;BME280;10749;46.296;7.524;2023-04-30T09:51:56;94658.34;;;19.06;51.90
21182;BME280;10749;46.296;7.524;2023-04-30T09:54:24;94664.19;;;18.92;51.53
21182;BME280;10749;46.296;7.524;2023-04-30T09:56:52;94664.53;;;18.95;51.95
21182;BME280;10749;46.296;7.524;2023-04-30T09:59:20;94654.53;;;18.79;51.60
21182;BME280;10749;46.296;7.524;2023-04-30T10:01:47;94658.34;;;18.95;51.95
21182;BME280;10749;46.296;7.524;2023-04-30T10:04:13;94664.53;;;18.95;51.47
21182;BME280;10749;46.296;7.524;2023-04-30T10:06:41;94659.75;;;18.85;51.51
21182;BME280;10749;46.296;7.524;2023-04-30T10:09:07;94655.69;;;18.83;51.57
21182;BME280;10749;46.296;7.524;2023-04-30T10:11:35;94652.06;;;18.89;51.64
21182;BME280;10749;46.296;7.524;2023-04-30T10:14:03;94654.75;;;18.89;51.75
21182;BME280;10749;46.296;7.524;2023-04-30T10:19:29;94647.19;;;18.74;51.80
21182;BME280;10749;46.296;7.524;2023-04-30T10:21:54;94644.97;;;18.83;52.01
21182;BME280;10749;46.296;7.524;2023-04-30T10:24:20;94648.56;;;18.88;52.17
21182;BME280;10749;46.296;7.524;2023-04-30T10:26:46;94643.56;;;18.92;52.00
21182;BME280;10749;46.296;7.524;2023-04-30T10:29:13;94646.69;;;18.89;52.32
21182;BME280;10749;46.296;7.524;2023-04-30T10:31:40;94643.81;;;18.79;52.19
21182;BME280;10749;46.296;7.524;2023-04-30T10:36:42;94643.56;;;18.69;52.58
21182;BME280;10749;46.296;7.524;2023-04-30T10:39:09;94644.97;;;18.60;52.49
21182;BME280;10749;46.296;7.524;2023-04-30T10:41:36;94643.34;;;18.59;52.55
21182;BME280;10749;46.296;7.524;2023-04-30T10:44:01;94638.00;;;18.59;52.81
21182;BME280;10749;46.296;7.524;2023-04-30T10:46:27;94625.97;;;18.73;52.42
21182;BME280;10749;46.296;7.524;2023-04-30T10:48:53;94630.41;;;18.79;52.80
21182;BME280;10749;46.296;7.524;2023-04-30T10:51:21;94623.19;;;18.79;52.72
21182;BME280;10749;46.296;7.524;2023-04-30T10:53:49;94626.66;;;18.92;52.87
21182;BME280;10749;46.296;7.524;2023-04-30T10:56:29;94622.22;;;18.85;52.84
21182;BME280;10749;46.296;7.524;2023-04-30T10:58:58;94636.56;;;18.91;52.75
21182;BME280;10749;46.296;7.524;2023-04-30T11:01:25;94629.00;;;18.88;52.79
21182;BME280;10749;46.296;7.524;2023-04-30T11:04:08;94613.59;;;18.95;52.60
21182;BME280;10749;46.296;7.524;2023-04-30T11:09:18;94622.16;;;19.20;52.70
21182;BME280;10749;46.296;7.524;2023-04-30T11:11:44;94609.91;;;19.24;52.95
21182;BME280;10749;46.296;7.524;2023-04-30T11:14:11;94607.50;;;19.40;52.67
21182;BME280;10749;46.296;7.524;2023-04-30T11:16:37;94599.28;;;19.58;52.92
21182;BME280;10749;46.296;7.524;2023-04-30T11:19:08;94600.16;;;19.75;52.73
21182;BME280;10749;46.296;7.524;2023-04-30T11:21:39;94603.38;;;19.77;52.40
21182;BME280;10749;46.296;7.524;2023-04-30T11:24:04;94586.38;;;19.88;52.21
21182;BME280;10749;46.296;7.524;2023-04-30T11:27:02;94599.69;;;20.11;51.98
21182;BME280;10749;46.296;7.524;2023-04-30T11:29:29;94589.91;;;20.05;51.49
21182;BME280;10749;46.296;7.524;2023-04-30T11:31:59;94584.84;;;20.25;51.77
21182;BME280;10749;46.296;7.524;2023-04-30T11:34:25;94586.69;;;20.37;51.51
21182;BME280;10749;46.296;7.524;2023-04-30T11:36:53;94591.34;;;20.63;51.84
21182;BME280;10749;46.296;7.524;2023-04-30T11:39:23;94600.53;;;20.67;51.55
21182;BME280;10749;46.296;7.524;2023-04-30T11:41:49;94590.47;;;20.57;51.05
21182;BME280;10749;46.296;7.524;2023-04-30T11:44:30;94585.44;;;20.44;50.56
21182;BME280;10749;46.296;7.524;2023-04-30T11:46:55;94595.72;;;20.31;50.90
21182;BME280;10749;46.296;7.524;2023-04-30T11:49:21;94589.59;;;20.35;51.24
21182;BME280;10749;46.296;7.524;2023-04-30T11:51:50;94597.41;;;20.20;50.62
21182;BME280;10749;46.296;7.524;2023-04-30T11:54:15;94594.31;;;20.11;50.61
21182;BME280;10749;46.296;7.524;2023-04-30T11:56:46;94594.22;;;20.06;50.58
21182;BME280;10749;46.296;7.524;2023-04-30T11:59:12;94595.19;;;20.00;50.32
21182;BME280;10749;46.296;7.524;2023-04-30T12:01:38;94589.34;;;20.03;50.62
21182;BME280;10749;46.296;7.524;2023-04-30T12:04:04;94584.84;;;20.09;50.31
21182;BME280;10749;46.296;7.524;2023-04-30T12:06:30;94590.47;;;20.07;50.75
21182;BME280;10749;46.296;7.524;2023-04-30T12:08:57;94588.75;;;20.01;50.52
21182;BME280;10749;46.296;7.524;2023-04-30T12:11:27;94597.72;;;19.90;50.14
21182;BME280;10749;46.296;7.524;2023-04-30T12:13:55;94595.91;;;19.79;50.44
21182;BME280;10749;46.296;7.524;2023-04-30T12:16:22;94594.69;;;19.70;50.42
21182;BME280;10749;46.296;7.524;2023-04-30T12:18:48;94585.38;;;19.61;50.67
21182;BME280;10749;46.296;7.524;2023-04-30T12:21:13;94599.84;;;19.60;50.32
21182;BME280;10749;46.296;7.524;2023-04-30T12:23:39;94582.09;;;19.59;50.51
21182;BME280;10749;46.296;7.524;2023-04-30T12:26:05;94585.13;;;19.46;50.77
21182;BME280;10749;46.296;7.524;2023-04-30T12:28:30;94589.31;;;19.42;50.37
21182;BME280;10749;46.296;7.524;2023-04-30T12:30:55;94591.00;;;19.19;50.34
21182;BME280;10749;46.296;7.524;2023-04-30T12:33:21;94589.53;;;19.12;50.42
21182;BME280;10749;46.296;7.524;2023-04-30T12:35:46;94585.69;;;19.08;50.56
21182;BME280;10749;46.296;7.524;2023-04-30T12:38:15;94586.97;;;19.05;50.75
21182;BME280;10749;46.296;7.524;2023-04-30T12:40:45;94595.00;;;19.05;50.74
21182;BME280;10749;46.296;7.524;2023-04-30T12:43:14;94585.72;;;18.96;50.54
21182;BME280;10749;46.296;7.524;2023-04-30T12:48:10;94603.41;;;18.97;50.84
21182;BME280;10749;46.296;7.524;2023-04-30T12:50:35;94594.97;;;18.77;51.09
21182;BME280;10749;46.296;7.524;2023-04-30T12:53:02;94602.78;;;18.78;51.16
21182;BME280;10749;46.296;7.524;2023-04-30T12:55:29;94590.03;;;18.85;50.85
21182;BME280;10749;46.296;7.524;2023-04-30T12:58:14;94597.53;;;18.83;51.15
21182;BME280;10749;46.296;7.524;2023-04-30T13:00:45;94597.38;;;18.90;51.22
21182;BME280;10749;46.296;7.524;2023-04-30T13:03:11;94590.19;;;18.79;50.82
21182;BME280;10749;46.296;7.524;2023-04-30T13:05:37;94593.13;;;18.66;51.13
21182;BME280;10749;46.296;7.524;2023-04-30T13:08:03;94597.44;;;18.67;50.89
21182;BME280;10749;46.296;7.524;2023-04-30T13:10:31;94600.81;;;18.62;50.97
21182;BME280;10749;46.296;7.524;2023-04-30T13:12:56;94597.75;;;18.47;50.98
21182;BME280;10749;46.296;7.524;2023-04-30T13:15:22;94591.59;;;18.47;51.07
21182;BME280;10749;46.296;7.524;2023-04-30T13:17:47;94605.50;;;18.55;51.10
21182;BME280;10749;46.296;7.524;2023-04-30T13:20:14;94599.88;;;18.57;51.37
21182;BME280;10749;46.296;7.524;2023-04-30T13:22:40;94605.44;;;18.43;51.52